Time;durP1;ratioP1;P1;durP2;ratioP2;P2;SDS_P1;SDS_P2;PMS_P1;PMS_P2;Temp;Humidity;BMP_temperature;BMP_pressure;BME280_temperature;BME280_humidity;BME280_pressure;Samples;Min_cycle;Max_cycle;Signal;HPM_P1;HPM_P2
2023/05/16 00:00:44;;;;;;;;;1.00;1.00;;;;;10.32;65.83;101997.47;4991588;28;10176;-66
2023/05/16 00:03:11;;;;;;;;;2.00;2.00;;;;;10.25;65.84;101987.50;4989188;28;10227;-67
2023/05/16 00:05:37;;;;;;;;;2.50;1.00;;;;;10.29;65.71;101995.13;4990929;28;11105;-65
2023/05/16 00:08:04;;;;;;;;;1.50;1.50;;;;;10.32;65.88;101997.47;4974540;28;10355;-70
2023/05/16 00:10:31;;;;;;;;;2.00;2.00;;;;;10.34;66.13;102000.84;4988888;28;10204;-67
2023/05/16 00:13:00;;;;;;;;;4.00;1.25;;;;;10.32;65.89;102005.53;4991520;28;10331;-66
2023/05/16 00:15:28;;;;;;;;;3.75;2.00;;;;;10.32;65.99;102007.38;4983000;28;10272;-68
2023/05/16 00:17:58;;;;;;;;;0.00;0.00;;;;;10.29;65.85;102005.03;4989254;28;11026;-67
2023/05/16 00:20:26;;;;;;;;;1.00;0.50;;;;;10.34;66.33;102002.69;4990105;28;10103;-67
2023/05/16 00:22:53;;;;;;;;;0.50;0.50;;;;;10.30;65.49;101999.50;4991116;28;10302;-67
2023/05/16 00:25:20;;;;;;;;;1.00;1.00;;;;;10.28;66.09;101998.78;4988714;28;10170;-66
2023/05/16 00:27:46;;;;;;;;;3.00;2.00;;;;;10.26;65.89;101997.28;4990145;28;10200;-66
2023/05/16 00:30:14;;;;;;;;;1.50;0.75;;;;;10.26;65.95;102003.50;4979025;28;11041;-66
2023/05/16 00:32:40;;;;;;;;;2.25;1.00;;;;;10.27;66.22;101997.13;4989125;28;10276;-66
2023/05/16 00:35:09;;;;;;;;;1.75;1.75;;;;;10.28;65.85;102004.19;4989437;28;10922;-70
2023/05/16 00:37:37;;;;;;;;;2.00;2.00;;;;;10.28;66.00;101990.72;4989984;28;10243;-66
2023/05/16 00:40:04;;;;;;;;;2.00;2.00;;;;;10.26;66.09;102000.81;4991149;28;10235;-66
2023/05/16 00:42:30;;;;;;;;;1.50;0.75;;;;;10.27;65.80;102005.19;4974034;28;10255;-67
2023/05/16 00:44:57;;;;;;;;;1.00;1.00;;;;;10.25;66.24;101999.16;4988859;28;10312;-69
2023/05/16 00:47:23;;;;;;;;;0.50;0.50;;;;;10.27;66.08;101997.13;4981529;28;10323;-67
2023/05/16 00:49:50;;;;;;;;;0.00;0.00;;;;;10.29;66.08;101988.88;4991273;28;10143;-67
2023/05/16 00:52:17;;;;;;;;;0.00;0.00;;;;;10.27;65.68;101991.75;4989937;28;10082;-66
2023/05/16 00:54:44;;;;;;;;;0.75;0.75;;;;;10.21;65.85;101994.19;4986563;28;10067;-67
2023/05/16 00:57:11;;;;;;;;;0.25;0.25;;;;;10.19;65.88;101996.22;4970408;28;11199;-68
2023/05/16 00:59:39;;;;;;;;;0.00;0.00;;;;;10.20;66.04;101998.75;4974863;28;11066;-67
2023/05/16 01:02:05;;;;;;;;;1.50;1.50;;;;;10.22;66.51;102003.97;4990749;28;10126;-66
2023/05/16 01:04:32;;;;;;;;;2.00;2.00;;;;;10.24;66.47;102007.34;4985870;28;10393;-69
2023/05/16 01:07:01;;;;;;;;;0.75;0.75;;;;;10.21;66.16;102003.13;4989620;28;10250;-66
2023/05/16 01:09:27;;;;;;;;;1.50;1.00;;;;;10.23;66.53;102008.34;4990400;28;10184;-66
2023/05/16 01:12:14;;;;;;;;;0.25;0.00;;;;;10.18;66.34;102000.78;4990949;28;10215;-67
2023/05/16 01:15:14;;;;;;;;;1.00;0.50;;;;;10.18;66.25;102008.00;4990112;28;10258;-67
2023/05/16 01:17:53;;;;;;;;;0.75;0.75;;;;;10.16;66.42;102005.47;4989091;28;10210;-68
2023/05/16 01:20:47;;;;;;;;;1.75;1.75;;;;;10.16;66.66;102000.06;4973443;28;10060;-67
2023/05/16 01:23:42;;;;;;;;;0.00;0.00;;;;;10.18;66.72;101999.94;4989062;28;10059;-67
2023/05/16 01:26:15;;;;;;;;;0.00;0.00;;;;;10.14;66.64;102004.78;4977350;28;10151;-69
2023/05/16 01:28:45;;;;;;;;;2.00;1.00;;;;;10.11;65.89;102007.78;4994914;28;10124;-66
2023/05/16 01:31:11;;;;;;;;;0.00;0.00;;;;;10.11;66.36;102002.41;4994573;28;10278;-66
2023/05/16 01:33:38;;;;;;;;;2.00;1.00;;;;;10.11;66.23;101997.88;4982429;28;10227;-69
2023/05/16 01:36:34;;;;;;;;;1.00;1.00;;;;;10.10;66.26;102003.44;4992160;28;10212;-66
2023/05/16 01:39:18;;;;;;;;;1.00;0.00;;;;;10.10;66.58;102006.97;4988024;28;10310;-67
2023/05/16 01:41:58;;;;;;;;;0.00;0.00;;;;;10.09;66.81;102002.59;4993463;28;10239;-68
2023/05/16 01:44:36;;;;;;;;;0.00;0.00;;;;;10.07;66.09;102015.34;4980304;28;10184;-66
2023/05/16 01:47:10;;;;;;;;;1.75;0.75;;;;;10.08;66.46;102008.94;4974982;28;10243;-65
2023/05/16 01:49:48;;;;;;;;;0.25;0.25;;;;;10.10;66.50;102006.13;4977013;28;10251;-66
2023/05/16 01:52:19;;;;;;;;;1.00;1.00;;;;;10.09;66.53;102013.34;4976946;28;10312;-67
2023/05/16 01:54:47;;;;;;;;;1.00;1.00;;;;;10.09;66.15;102013.34;4993926;28;10305;-67
2023/05/16 01:57:15;;;;;;;;;1.25;1.00;;;;;10.06;66.49;102012.84;4976781;28;10226;-67
2023/05/16 01:59:43;;;;;;;;;1.00;1.00;;;;;10.04;66.04;102021.03;4981880;28;10312;-67
2023/05/16 02:02:09;;;;;;;;;0.00;0.00;;;;;10.06;66.64;102012.84;4988626;28;10155;-68
2023/05/16 02:04:37;;;;;;;;;1.00;1.00;;;;;10.06;66.10;102010.16;4976174;28;10316;-65
2023/05/16 02:07:03;;;;;;;;;1.00;1.00;;;;;10.04;66.54;102015.66;4994213;28;10294;-67
2023/05/16 02:09:30;;;;;;;;;0.25;0.25;;;;;10.01;66.55;102015.19;4992268;28;10914;-67
2023/05/16 02:11:59;;;;;;;;;1.00;1.00;;;;;9.98;66.32;102008.25;4992956;28;10211;-67
2023/05/16 02:14:25;;;;;;;;;1.00;1.00;;;;;9.98;66.86;102018.19;4976870;28;10138;-69
2023/05/16 02:16:52;;;;;;;;;0.25;0.25;;;;;9.97;66.65;102022.72;4976339;28;10223;-67
2023/05/16 02:19:18;;;;;;;;;0.00;0.00;;;;;9.94;67.01;102014.13;4993910;28;10298;-69
2023/05/16 02:21:45;;;;;;;;;3.50;0.75;;;;;9.94;67.15;102017.66;4993708;28;10200;-67
2023/05/16 02:24:11;;;;;;;;;0.50;0.50;;;;;9.95;66.32;102018.50;4959726;28;10301;-66
2023/05/16 02:26:38;;;;;;;;;1.00;0.00;;;;;9.96;67.06;102015.63;4992896;28;10362;-69
2023/05/16 02:29:04;;;;;;;;;1.50;0.75;;;;;9.97;66.18;102011.97;4984437;28;10225;-67
2023/05/16 02:31:33;;;;;;;;;0.25;0.25;;;;;9.94;66.44;102009.59;4993528;28;10291;-66
2023/05/16 02:34:01;;;;;;;;;0.50;0.50;;;;;9.95;66.79;102015.81;4993500;28;10503;-70
2023/05/16 02:36:28;;;;;;;;;1.00;1.00;;;;;9.95;66.38;102021.19;4992833;28;10158;-67
2023/05/16 02:38:54;;;;;;;;;1.00;1.00;;;;;9.95;66.60;102016.66;4975388;28;10299;-69
2023/05/16 02:41:21;;;;;;;;;0.00;0.00;;;;;9.96;66.22;102022.84;4992873;28;10473;-67
2023/05/16 02:43:48;;;;;;;;;0.25;0.25;;;;;9.95;66.80;102026.56;4959486;28;10240;-66
2023/05/16 02:46:32;;;;;;;;;0.75;0.75;;;;;9.93;66.46;102021.34;4992795;28;10305;-69
2023/05/16 02:48:59;;;;;;;;;1.00;1.00;;;;;9.92;66.09;102027.72;4972668;28;10529;-67
2023/05/16 02:51:26;;;;;;;;;1.00;1.00;;;;;9.94;66.83;102030.25;4956537;28;10231;-66
2023/05/16 02:53:55;;;;;;;;;1.00;1.00;;;;;9.89;66.12;102038.81;4956460;28;10353;-68
2023/05/16 02:56:22;;;;;;;;;0.00;0.00;;;;;9.85;66.32;102034.75;4991046;28;10310;-69
2023/05/16 02:58:50;;;;;;;;;1.00;0.00;;;;;9.90;66.50;102033.28;4986066;28;10318;-67
2023/05/16 03:01:17;;;;;;;;;0.00;0.00;;;;;9.93;66.65;102036.66;4988555;28;10939;-67
2023/05/16 03:03:44;;;;;;;;;2.00;1.25;;;;;9.87;66.24;102030.88;4983901;28;10396;-66
2023/05/16 03:06:11;;;;;;;;;0.00;0.00;;;;;9.91;66.21;102034.09;4992822;28;10459;-66
2023/05/16 03:08:37;;;;;;;;;0.75;0.00;;;;;9.91;65.99;102034.94;4991822;28;10294;-67
2023/05/16 03:11:04;;;;;;;;;0.50;0.00;;;;;9.93;66.39;102040.19;4976547;28;10361;-66
2023/05/16 03:13:30;;;;;;;;;1.00;0.00;;;;;9.92;65.79;102038.47;4975691;28;10245;-66
2023/05/16 03:15:57;;;;;;;;;1.50;1.00;;;;;9.90;66.13;102041.34;4992348;28;10286;-69
2023/05/16 03:18:24;;;;;;;;;1.00;1.00;;;;;9.91;66.08;102039.47;4975686;28;10320;-67
2023/05/16 03:20:51;;;;;;;;;1.75;0.00;;;;;9.90;65.98;102035.97;4991700;28;10255;-66
2023/05/16 03:23:19;;;;;;;;;1.25;0.25;;;;;9.89;66.46;102041.50;4991676;28;10237;-67
2023/05/16 03:25:46;;;;;;;;;0.00;0.00;;;;;9.86;66.05;102033.75;4981520;28;10180;-68
2023/05/16 03:28:12;;;;;;;;;1.00;0.25;;;;;9.84;65.94;102036.63;4991136;28;10084;-67
2023/05/16 03:30:40;;;;;;;;;1.75;1.00;;;;;9.84;65.62;102033.94;4992469;28;10174;-66
2023/05/16 03:33:07;;;;;;;;;2.25;1.00;;;;;9.85;65.61;102037.44;4991137;28;10518;-66
2023/05/16 03:35:35;;;;;;;;;1.50;1.50;;;;;9.84;65.63;102036.63;4991314;28;10348;-69
2023/05/16 03:38:02;;;;;;;;;1.00;1.00;;;;;9.85;66.33;102037.44;4992773;28;11117;-67
2023/05/16 03:40:28;;;;;;;;;1.75;1.75;;;;;9.81;65.86;102042.31;4991731;28;10395;-67
2023/05/16 03:42:55;;;;;;;;;1.75;1.00;;;;;9.80;65.83;102040.63;4992419;28;10239;-66
2023/05/16 03:45:21;;;;;;;;;0.75;0.75;;;;;9.80;66.20;102040.63;4992285;28;10366;-67
2023/05/16 03:47:48;;;;;;;;;0.00;0.00;;;;;9.79;66.14;102038.91;4974508;28;10245;-65
2023/05/16 03:50:15;;;;;;;;;2.00;2.00;;;;;9.78;66.28;102049.84;4975019;28;10239;-66
2023/05/16 03:52:41;;;;;;;;;1.00;1.00;;;;;9.77;66.16;102051.69;4982222;28;10368;-66
2023/05/16 03:55:08;;;;;;;;;1.00;1.00;;;;;9.81;66.19;102052.22;4987811;28;10586;-67
2023/05/16 03:57:37;;;;;;;;;0.75;0.50;;;;;9.82;65.83;102054.75;4990822;28;10544;-67
2023/05/16 04:00:06;;;;;;;;;0.00;0.00;;;;;9.85;66.06;102051.75;4990859;28;10450;-67
2023/05/16 04:02:39;;;;;;;;;0.00;0.00;;;;;9.85;66.46;102049.06;4992042;28;10415;-69
2023/05/16 04:05:07;;;;;;;;;1.25;1.25;;;;;9.81;65.80;102049.53;4958316;28;10959;-65
2023/05/16 04:07:34;;;;;;;;;0.00;0.00;;;;;9.80;65.59;102051.38;4992044;28;10442;-66
2023/05/16 04:10:01;;;;;;;;;0.75;0.75;;;;;9.79;66.60;102048.84;4990705;28;10222;-69
2023/05/16 04:12:27;;;;;;;;;0.00;0.00;;;;;9.82;65.92;102046.66;4984097;28;10396;-67
2023/05/16 04:14:53;;;;;;;;;2.00;1.25;;;;;9.84;65.96;102052.75;5006931;23;10401;-64
2023/05/16 04:17:20;;;;;;;;;0.00;0.00;;;;;9.85;66.48;102056.28;5031248;28;10368;-64
2023/05/16 04:19:46;;;;;;;;;2.00;0.25;;;;;9.83;66.72;102059.09;5031023;28;10436;-61
2023/05/16 04:22:13;;;;;;;;;0.50;0.25;;;;;9.86;66.57;102060.66;5031196;28;10323;-64
2023/05/16 04:24:39;;;;;;;;;1.00;1.00;;;;;9.83;66.54;102060.97;5024844;28;10382;-64
2023/05/16 04:27:09;;;;;;;;;1.25;1.00;;;;;9.84;66.47;102059.94;5011097;28;10304;-64
2023/05/16 04:29:35;;;;;;;;;0.75;0.00;;;;;9.82;66.55;102054.75;5009795;28;10323;-63
2023/05/16 04:32:02;;;;;;;;;0.00;0.00;;;;;9.84;66.59;102065.31;5025080;28;10355;-64
2023/05/16 04:34:29;;;;;;;;;1.00;0.75;;;;;9.83;66.73;102061.78;5010991;28;10362;-64
2023/05/16 04:36:55;;;;;;;;;1.00;1.00;;;;;9.81;66.77;102073.75;5010476;28;10382;-64
2023/05/16 04:39:22;;;;;;;;;1.00;1.00;;;;;9.85;66.89;102075.09;5009559;28;10353;-64
2023/05/16 04:41:49;;;;;;;;;1.00;1.00;;;;;9.89;67.09;102073.78;5024444;28;10369;-63
2023/05/16 04:44:15;;;;;;;;;2.00;2.00;;;;;9.96;66.58;102076.66;5021255;28;10462;-64
2023/05/16 04:46:42;;;;;;;;;1.75;1.00;;;;;10.02;66.35;102076.03;5016305;28;10480;-64
2023/05/16 04:49:10;;;;;;;;;0.00;0.00;;;;;10.04;66.32;102076.69;5010759;28;11104;-63
2023/05/16 04:51:36;;;;;;;;;2.00;2.00;;;;;10.01;66.45;102074.34;5025905;28;10318;-64
2023/05/16 04:54:03;;;;;;;;;1.00;1.00;;;;;10.05;66.70;102079.25;5010622;28;10539;-64
2023/05/16 04:56:29;;;;;;;;;0.00;0.00;;;;;10.10;66.84;102084.16;5009801;28;10251;-65
2023/05/16 04:58:56;;;;;;;;;4.75;1.50;;;;;10.18;66.19;102086.88;5009246;28;10979;-65
2023/05/16 05:01:22;;;;;;;;;1.00;1.00;;;;;10.11;66.33;102083.97;5025818;28;10352;-65
2023/05/16 05:03:49;;;;;;;;;1.00;1.00;;;;;10.16;66.43;102083.47;5024795;28;10382;-65
2023/05/16 05:06:15;;;;;;;;;2.00;0.75;;;;;10.24;65.53;102093.44;5009175;28;10450;-65
2023/05/16 05:08:42;;;;;;;;;1.00;1.00;;;;;10.25;65.84;102093.34;5025747;28;10299;-65
2023/05/16 05:11:08;;;;;;;;;1.00;1.00;;;;;10.30;65.78;102095.53;5009822;28;10360;-64
2023/05/16 05:13:35;;;;;;;;;1.00;1.00;;;;;10.29;65.33;102083.94;5017176;28;10241;-64
2023/05/16 05:16:03;;;;;;;;;0.00;0.00;;;;;10.28;65.33;102087.59;5009567;28;10305;-64
2023/05/16 05:18:30;;;;;;;;;2.50;0.00;;;;;10.20;65.50;102084.84;4994969;28;10157;-65
2023/05/16 05:20:57;;;;;;;;;2.00;0.00;;;;;10.20;65.37;102100.16;5005740;28;10304;-65
2023/05/16 05:23:23;;;;;;;;;0.25;0.00;;;;;10.24;65.91;102093.44;5025449;28;10366;-65
2023/05/16 05:25:50;;;;;;;;;0.00;0.00;;;;;10.23;65.36;102092.59;5009582;28;10242;-65
2023/05/16 05:28:16;;;;;;;;;2.00;0.75;;;;;10.21;65.62;102091.94;5017089;28;11016;-65
2023/05/16 05:30:43;;;;;;;;;0.75;0.00;;;;;10.26;65.85;102100.41;5009138;28;10367;-64
2023/05/16 05:33:10;;;;;;;;;0.00;0.00;;;;;10.32;65.71;102088.13;5009692;28;10224;-65
2023/05/16 05:35:37;;;;;;;;;1.00;0.50;;;;;10.36;65.53;102097.56;5014654;28;10872;-64
2023/05/16 05:38:03;;;;;;;;;0.50;0.00;;;;;10.45;64.87;102098.44;5006789;28;10230;-64
2023/05/16 05:40:30;;;;;;;;;0.00;0.00;;;;;10.45;64.72;102111.91;5005166;28;10218;-64
2023/05/16 05:42:56;;;;;;;;;1.00;1.00;;;;;10.49;64.65;102099.81;5007734;28;10188;-64
2023/05/16 05:45:22;;;;;;;;;1.00;0.00;;;;;10.54;64.67;102106.41;5002019;28;10450;-63
2023/05/16 05:47:49;;;;;;;;;1.25;1.00;;;;;10.68;64.75;102113.00;5004689;28;10168;-65
2023/05/16 05:50:16;;;;;;;;;1.00;1.00;;;;;10.78;64.00;102112.88;5009941;28;10255;-65
2023/05/16 05:52:43;;;;;;;;;0.00;0.00;;;;;10.88;64.06;102116.25;5008390;28;10224;-65
2023/05/16 05:55:09;;;;;;;;;0.75;0.00;;;;;10.98;63.31;102121.47;5019566;28;9989;-65
2023/05/16 05:57:36;;;;;;;;;0.00;0.00;;;;;11.09;63.33;102113.09;4993677;28;11035;-65
2023/05/16 06:00:03;;;;;;;;;1.00;1.00;;;;;11.21;62.70;102114.44;5000846;28;10127;-64
2023/05/16 06:02:33;;;;;;;;;0.00;0.00;;;;;11.38;62.99;102113.47;5006567;28;10052;-63
2023/05/16 06:05:00;;;;;;;;;1.00;1.00;;;;;11.59;62.99;102120.19;5009026;28;10214;-63
2023/05/16 06:07:26;;;;;;;;;0.00;0.00;;;;;11.69;62.28;102120.00;5001317;28;10082;-65
2023/05/16 06:09:53;;;;;;;;;1.00;0.00;;;;;11.71;61.56;102116.13;5012703;28;9962;-64
2023/05/16 06:12:19;;;;;;;;;0.00;0.00;;;;;11.75;61.41;102122.00;5000128;28;9826;-65
2023/05/16 06:14:46;;;;;;;;;0.25;0.00;;;;;11.75;61.23;102117.47;5009444;28;9872;-64
2023/05/16 06:17:12;;;;;;;;;0.25;0.00;;;;;11.79;60.52;102118.00;5005767;28;9984;-64
2023/05/16 06:19:39;;;;;;;;;2.00;0.50;;;;;11.73;60.44;102127.59;5010575;28;9997;-64
2023/05/16 06:22:05;;;;;;;;;1.00;0.00;;;;;11.66;60.15;102126.56;5004198;28;9915;-65
2023/05/16 06:24:32;;;;;;;;;2.00;0.00;;;;;11.56;61.27;102126.75;5010167;28;9754;-65
2023/05/16 06:26:58;;;;;;;;;1.00;1.00;;;;;11.58;61.50;102142.75;5006686;28;9847;-64
2023/05/16 06:29:25;;;;;;;;;1.00;1.00;;;;;11.48;60.95;102142.94;5003937;28;10017;-65
2023/05/16 06:31:51;;;;;;;;;0.00;0.00;;;;;11.41;61.43;102149.16;5010675;28;9905;-64
2023/05/16 06:34:18;;;;;;;;;0.00;0.00;;;;;11.30;60.67;102139.53;5011709;28;9757;-65
2023/05/16 06:36:44;;;;;;;;;1.00;1.00;;;;;11.34;65.43;102143.59;5024152;28;9927;-67
2023/05/16 06:39:11;;;;;;;;;1.50;0.00;;;;;11.38;62.74;102145.81;5013221;28;9839;-64
2023/05/16 06:41:37;;;;;;;;;0.00;0.00;;;;;11.39;62.25;102141.25;5008428;28;9783;-65
2023/05/16 06:44:04;;;;;;;;;0.00;0.00;;;;;11.46;62.02;102136.03;4999333;28;9759;-64
2023/05/16 06:46:31;;;;;;;;;0.00;0.00;;;;;11.43;61.27;102139.91;5016247;28;9828;-65
2023/05/16 06:48:58;;;;;;;;;0.00;0.00;;;;;11.35;62.02;102148.84;4998341;28;10719;-65
2023/05/16 06:51:24;;;;;;;;;0.00;0.00;;;;;11.31;62.22;102147.47;5006403;28;10023;-65
2023/05/16 06:53:51;;;;;;;;;1.00;0.00;;;;;11.24;62.43;102146.47;5012719;28;9897;-65
2023/05/16 06:56:17;;;;;;;;;0.00;0.00;;;;;11.24;63.08;102159.09;5027598;28;9917;-64
2023/05/16 06:58:44;;;;;;;;;0.00;0.00;;;;;11.18;61.95;102152.53;5012930;28;9955;-64
2023/05/16 07:01:11;;;;;;;;;0.00;0.00;;;;;11.14;62.09;102157.41;5027905;28;10002;-64
2023/05/16 07:03:38;;;;;;;;;1.50;0.75;;;;;11.13;62.40;102157.56;5012125;28;10073;-63
2023/05/16 07:06:05;;;;;;;;;0.00;0.00;;;;;11.22;62.68;102161.97;5012399;28;10122;-64
2023/05/16 07:08:32;;;;;;;;;0.00;0.00;;;;;11.32;62.27;102164.50;5012696;28;10094;-62
2023/05/16 07:10:58;;;;;;;;;2.00;0.00;;;;;11.42;62.44;102162.47;5012153;28;10031;-64
2023/05/16 07:13:25;;;;;;;;;0.75;0.75;;;;;11.49;61.95;102157.25;5017457;28;9880;-64
2023/05/16 07:15:51;;;;;;;;;0.50;0.50;;;;;11.57;61.50;102165.34;5018329;28;10900;-64
2023/05/16 07:18:18;;;;;;;;;1.50;0.00;;;;;11.60;60.89;102162.31;5016887;28;9833;-63
2023/05/16 07:20:45;;;;;;;;;1.00;0.00;;;;;11.67;60.61;102166.03;5031997;28;9721;-64
2023/05/16 07:23:12;;;;;;;;;0.00;0.00;;;;;11.57;59.93;102166.19;5016181;28;9765;-64
2023/05/16 07:25:38;;;;;;;;;0.00;0.00;;;;;11.48;58.65;102163.69;5015763;28;9878;-64
2023/05/16 07:28:05;;;;;;;;;1.00;1.00;;;;;11.39;59.13;102162.81;5013777;28;9765;-64
2023/05/16 07:30:31;;;;;;;;;0.00;0.00;;;;;11.44;59.62;102173.09;5014064;28;9986;-64
2023/05/16 07:32:58;;;;;;;;;0.75;0.00;;;;;11.56;58.35;102166.38;5012504;28;9753;-64
2023/05/16 07:35:25;;;;;;;;;0.00;0.00;;;;;11.67;58.89;102166.03;5026898;28;10796;-64
2023/05/16 07:37:52;;;;;;;;;2.00;1.00;;;;;11.69;58.58;102166.69;5012055;28;9768;-64
2023/05/16 07:40:20;;;;;;;;;1.00;0.75;;;;;11.72;58.85;102160.13;5026885;28;9910;-64
2023/05/16 07:42:46;;;;;;;;;0.00;0.00;;;;;11.88;58.75;102163.69;5011816;28;10325;-64
2023/05/16 07:45:13;;;;;;;;;1.00;0.00;;;;;11.97;59.03;102158.28;5009822;28;10631;-63
2023/05/16 07:47:39;;;;;;;;;0.00;0.00;;;;;12.04;59.21;102156.59;5011733;28;9752;-64
2023/05/16 07:50:06;;;;;;;;;0.00;0.00;;;;;11.96;58.82;102170.94;5010255;28;10443;-64
2023/05/16 07:52:33;;;;;;;;;0.00;0.00;;;;;11.88;59.25;102176.34;5009942;28;9788;-64
2023/05/16 07:55:00;;;;;;;;;1.00;1.00;;;;;11.80;59.15;102179.00;5011029;28;9848;-64
2023/05/16 07:57:26;;;;;;;;;0.00;0.00;;;;;11.76;58.88;102178.50;5011591;28;9768;-64
2023/05/16 07:59:54;;;;;;;;;1.00;1.00;;;;;11.81;58.05;102173.44;5011498;28;9687;-63
2023/05/16 08:02:23;;;;;;;;;0.00;0.00;;;;;11.94;58.12;102178.34;5011766;28;9747;-64
2023/05/16 08:04:50;;;;;;;;;1.00;0.50;;;;;12.01;58.66;102162.31;5026485;28;9757;-63
2023/05/16 08:07:16;;;;;;;;;1.00;0.25;;;;;12.17;58.32;102172.25;5010524;28;9678;-65
2023/05/16 08:09:42;;;;;;;;;0.00;0.00;;;;;12.20;57.86;102180.84;5026657;28;9765;-64
2023/05/16 08:12:09;;;;;;;;;0.00;0.00;;;;;12.12;57.50;102170.91;5011504;28;9848;-64
2023/05/16 08:14:35;;;;;;;;;0.00;0.00;;;;;12.11;57.90;102169.22;5010905;28;9879;-64
2023/05/16 08:17:02;;;;;;;;;0.00;0.00;;;;;12.16;57.98;102163.31;5011515;28;9848;-64
2023/05/16 08:19:29;;;;;;;;;0.00;0.00;;;;;12.24;58.25;102174.09;5026403;28;9751;-65
2023/05/16 08:21:55;;;;;;;;;0.00;0.00;;;;;12.34;58.07;102174.72;5011322;28;9611;-63
2023/05/16 08:24:22;;;;;;;;;1.00;1.00;;;;;12.39;58.48;102182.28;5010765;28;9706;-64
2023/05/16 08:26:49;;;;;;;;;0.00;0.00;;;;;12.45;57.34;102176.22;5011162;28;9754;-64
2023/05/16 08:29:16;;;;;;;;;0.50;0.50;;;;;12.49;57.22;102165.91;5009729;28;9704;-64
2023/05/16 08:31:42;;;;;;;;;0.00;0.00;;;;;12.60;57.05;102179.88;5010963;28;9678;-65
2023/05/16 08:34:09;;;;;;;;;0.00;0.00;;;;;12.67;57.06;102173.75;5025806;28;9660;-64
2023/05/16 08:36:36;;;;;;;;;1.00;1.00;;;;;12.67;57.23;102188.09;5011027;28;10248;-64
2023/05/16 08:39:03;;;;;;;;;0.50;0.50;;;;;12.69;56.69;102194.19;5009722;28;9456;-65
2023/05/16 08:41:30;;;;;;;;;0.00;0.00;;;;;12.69;56.73;102188.78;5011098;28;9673;-63
2023/05/16 08:43:56;;;;;;;;;0.00;0.00;;;;;12.75;56.56;102182.66;5009610;28;9584;-66
2023/05/16 08:46:25;;;;;;;;;1.00;1.00;;;;;12.75;55.68;102193.47;5010534;28;9681;-64
2023/05/16 08:48:53;;;;;;;;;0.00;0.00;;;;;12.76;55.82;102195.19;5026010;28;9719;-65
2023/05/16 08:51:20;;;;;;;;;0.00;0.00;;;;;12.67;56.17;102196.22;5025996;28;9579;-65
2023/05/16 08:53:56;;;;;;;;;0.00;0.00;;;;;12.51;57.21;102196.28;5010832;28;9521;-64
2023/05/16 08:56:24;;;;;;;;;0.00;0.00;;;;;12.48;58.37;102200.19;5009111;28;9542;-65
2023/05/16 08:58:53;;;;;;;;;2.00;1.00;;;;;12.44;57.86;102193.44;5009224;28;9672;-65
2023/05/16 09:01:21;;;;;;;;;0.75;0.75;;;;;12.45;58.65;102187.03;5010716;28;9544;-65
2023/05/16 09:03:49;;;;;;;;;2.00;0.25;;;;;12.60;58.50;102189.84;5025695;28;9761;-65
2023/05/16 09:06:16;;;;;;;;;1.25;0.00;;;;;12.79;58.36;102188.56;5010159;28;9610;-65
2023/05/16 09:08:43;;;;;;;;;0.50;0.50;;;;;12.97;57.98;102196.44;5010478;28;9593;-64
2023/05/16 09:11:10;;;;;;;;;0.75;0.75;;;;;12.94;57.37;102191.38;5010304;28;10317;-65
2023/05/16 09:13:38;;;;;;;;;1.00;1.00;;;;;12.92;56.18;102199.66;5010675;28;9551;-64
2023/05/16 09:16:15;;;;;;;;;0.00;0.00;;;;;12.85;56.13;102196.81;5008724;28;9481;-65
2023/05/16 09:18:52;;;;;;;;;1.75;1.00;;;;;12.87;57.10;102202.88;5010552;28;9389;-65
2023/05/16 09:21:19;;;;;;;;;0.00;0.00;;;;;12.89;57.36;102191.91;5010706;28;10416;-65
2023/05/16 09:23:48;;;;;;;;;0.00;0.00;;;;;12.86;57.36;102189.56;5010455;28;9504;-65
2023/05/16 09:26:14;;;;;;;;;0.50;0.50;;;;;12.82;56.56;102186.34;5009862;28;9480;-65
2023/05/16 09:28:42;;;;;;;;;0.00;0.00;;;;;12.90;55.91;102182.78;5010362;28;9457;-65
2023/05/16 09:31:29;;;;;;;;;0.00;0.00;;;;;12.95;56.04;102195.75;5025495;28;9441;-65
2023/05/16 09:33:56;;;;;;;;;0.25;0.00;;;;;12.92;55.19;102198.81;5010164;28;9527;-63
2023/05/16 09:36:22;;;;;;;;;1.00;0.75;;;;;12.90;54.27;102200.88;5003705;28;9548;-65
2023/05/16 09:38:51;;;;;;;;;1.25;0.25;;;;;12.93;54.72;102205.91;5010374;28;9572;-65
2023/05/16 09:41:17;;;;;;;;;3.00;2.25;;;;;12.97;55.15;102204.56;5009760;28;9614;-64
2023/05/16 09:43:44;;;;;;;;;0.00;0.00;;;;;12.96;54.92;102206.38;5010467;28;9641;-65
2023/05/16 09:46:14;;;;;;;;;0.00;0.00;;;;;12.89;55.25;102205.44;5027951;28;9476;-65
2023/05/16 09:48:45;;;;;;;;;3.00;0.00;;;;;12.93;54.63;102205.91;5014085;28;9543;-65
2023/05/16 09:51:13;;;;;;;;;1.75;1.50;;;;;13.05;54.74;102209.91;5013839;28;9546;-63
2023/05/16 09:53:42;;;;;;;;;0.75;0.75;;;;;13.11;54.69;102201.06;5029069;28;9619;-65
2023/05/16 09:56:10;;;;;;;;;0.50;0.00;;;;;13.09;53.54;102206.69;5012013;28;9564;-64
2023/05/16 09:58:39;;;;;;;;;0.50;0.50;;;;;13.11;53.33;102198.38;5012425;28;9518;-64
2023/05/16 10:01:07;;;;;;;;;0.00;0.00;;;;;13.10;52.89;102202.94;5013775;28;9488;-65
2023/05/16 10:03:35;;;;;;;;;0.00;0.00;;;;;13.05;52.54;102204.50;5013940;28;9378;-65
2023/05/16 10:06:04;;;;;;;;;0.00;0.00;;;;;13.00;52.92;102206.88;5012136;28;10190;-65
2023/05/16 10:08:35;;;;;;;;;0.00;0.00;;;;;12.90;53.41;102207.09;5005031;28;9402;-64
2023/05/16 10:11:03;;;;;;;;;0.00;0.00;;;;;12.88;54.18;102206.41;5015661;28;9480;-65
2023/05/16 10:13:32;;;;;;;;;0.00;0.00;;;;;12.91;54.18;102216.06;5006261;28;10154;-65
2023/05/16 10:16:04;;;;;;;;;0.00;0.00;;;;;12.92;53.96;102215.03;5051388;23;9455;-69
2023/05/16 10:18:33;;;;;;;;;1.33;0.00;;;;;12.97;53.96;102216.19;5068266;28;9458;-67
2023/05/16 10:21:05;;;;;;;;;1.00;0.00;;;;;13.00;53.91;102218.53;5052684;28;9278;-67
2023/05/16 10:23:36;;;;;;;;;0.00;0.00;;;;;13.14;53.17;102219.66;5052433;28;9284;-68
2023/05/16 10:26:04;;;;;;;;;0.67;0.00;;;;;13.32;52.43;102217.53;5052611;28;9480;-68
2023/05/16 10:28:31;;;;;;;;;0.33;0.33;;;;;13.43;52.91;102220.88;5050937;28;9428;-69
2023/05/16 10:30:59;;;;;;;;;0.00;0.00;;;;;13.51;52.51;102218.09;5052734;28;9289;-68
2023/05/16 10:33:25;;;;;;;;;0.00;0.00;;;;;13.60;51.94;102211.59;5048020;28;9382;-68
2023/05/16 10:35:52;;;;;;;;;0.00;0.00;;;;;13.64;51.69;102204.81;5032484;28;9460;-67
2023/05/16 10:38:20;;;;;;;;;1.00;0.00;;;;;13.62;51.73;102212.28;5048100;28;9395;-68
2023/05/16 10:40:48;;;;;;;;;0.00;0.00;;;;;13.62;52.21;102214.16;5032468;28;9294;-67
2023/05/16 10:43:26;;;;;;;;;1.00;1.00;;;;;13.75;52.44;102201.69;5032917;28;9320;-67
2023/05/16 10:45:55;;;;;;;;;0.00;0.00;;;;;13.85;52.76;102210.41;5032262;28;9361;-68
2023/05/16 10:48:30;;;;;;;;;1.00;0.00;;;;;13.96;51.54;102209.09;5031241;28;9404;-68
2023/05/16 10:50:56;;;;;;;;;3.00;1.00;;;;;13.93;52.34;102205.91;5032696;28;9123;-67
2023/05/16 10:53:31;;;;;;;;;0.00;0.00;;;;;13.98;51.83;102209.78;5032656;28;9225;-66
2023/05/16 10:55:58;;;;;;;;;0.33;0.33;;;;;14.14;54.19;102210.63;5030245;28;9172;-68
2023/05/16 10:58:39;;;;;;;;;0.00;0.00;;;;;14.19;52.62;102210.94;5032089;28;9355;-67
2023/05/16 11:01:28;;;;;;;;;0.00;0.00;;;;;14.16;51.08;102201.31;5032727;28;9888;-67
2023/05/16 11:03:55;;;;;;;;;2.00;1.00;;;;;14.02;51.82;102210.25;5032516;28;9162;-68
2023/05/16 11:06:22;;;;;;;;;0.00;0.00;;;;;13.85;52.19;102205.00;5032146;28;9359;-67
2023/05/16 11:09:09;;;;;;;;;0.00;0.00;;;;;13.72;52.56;102203.91;5032509;28;9222;-67
2023/05/16 11:11:49;;;;;;;;;0.00;0.00;;;;;13.66;52.55;102199.22;5031053;28;9837;-67
2023/05/16 11:14:31;;;;;;;;;0.00;0.00;;;;;13.57;53.30;102206.53;5032002;28;9321;-68
2023/05/16 11:17:14;;;;;;;;;0.00;0.00;;;;;13.53;53.40;102206.09;5032243;28;9240;-67
2023/05/16 11:19:48;;;;;;;;;2.33;1.00;;;;;13.49;53.54;102212.88;5032432;28;9239;-68
2023/05/16 11:22:18;;;;;;;;;1.00;0.00;;;;;13.48;53.52;102211.19;5014557;28;9331;-67
2023/05/16 11:25:05;;;;;;;;;0.00;0.00;;;;;13.46;53.16;102210.53;5031880;28;9281;-67
2023/05/16 11:27:35;;;;;;;;;0.00;0.00;;;;;13.43;53.69;102204.63;5032091;28;9235;-68
2023/05/16 11:30:04;;;;;;;;;1.00;1.00;;;;;13.46;53.05;102213.25;5032093;28;10006;-66
2023/05/16 11:32:40;;;;;;;;;0.00;0.00;;;;;13.45;53.43;102207.97;5031968;28;9512;-67
2023/05/16 11:35:10;;;;;;;;;0.00;0.00;;;;;13.58;53.30;102210.97;5031956;28;9293;-67